createdAt,value
2019-05-28T00:00:03.013Z,99378.66
2019-05-28T00:02:33.819Z,99376.05
2019-05-28T00:05:02.939Z,99378.14
2019-05-28T00:07:32.111Z,99377.72
2019-05-28T00:10:01.290Z,99377.98
2019-05-28T00:12:30.497Z,99375.47
2019-05-28T00:14:59.733Z,99377.05
2019-05-28T00:17:29.512Z,99373.70
2019-05-28T00:19:58.446Z,99379.27
2019-05-28T00:22:27.622Z,99387.87
2019-05-28T00:24:56.818Z,99374.73
2019-05-28T00:27:25.922Z,99374.86
2019-05-28T00:29:55.043Z,99379.69
2019-05-28T00:32:24.134Z,99379.47
2019-05-28T00:34:54.675Z,99384.41
2019-05-28T00:37:23.945Z,99382.39
2019-05-28T00:39:53.257Z,99378.79
2019-05-28T00:42:22.361Z,99391.36
2019-05-28T00:44:52.393Z,99386.28
2019-05-28T00:47:21.708Z,99384.82
2019-05-28T00:49:50.839Z,99384.70
2019-05-28T00:52:19.866Z,99385.64
2019-05-28T00:54:48.821Z,99386.36
2019-05-28T00:57:18.058Z,99384.53
2019-05-28T00:59:47.502Z,99387.44
2019-05-28T01:02:16.854Z,99385.13
2019-05-28T01:04:46.027Z,99391.77
2019-05-28T01:07:15.422Z,99400.33
2019-05-28T01:09:44.490Z,99395.02
2019-05-28T01:12:13.792Z,99390.69
2019-05-28T01:14:43.008Z,99394.92
2019-05-28T01:17:11.943Z,99395.81
2019-05-28T01:19:40.801Z,99393.92
2019-05-28T01:22:10.037Z,99401.98
2019-05-28T01:24:39.226Z,99399.77
2019-05-28T01:27:09.324Z,99400.96
2019-05-28T01:29:38.450Z,99407.18
2019-05-28T01:32:07.358Z,99402.47
2019-05-28T01:34:36.554Z,99405.69
2019-05-28T01:37:05.406Z,99404.79
2019-05-28T01:39:34.595Z,99404.19
2019-05-28T01:42:03.593Z,99413.13
2019-05-28T01:44:32.963Z,99408.04
2019-05-28T01:47:02.078Z,99420.80
2019-05-28T01:49:31.452Z,99415.44
2019-05-28T01:52:00.489Z,99424.43
2019-05-28T01:54:29.519Z,99426.06
2019-05-28T01:56:58.546Z,99433.26
2019-05-28T01:59:27.726Z,99431.23
2019-05-28T02:01:58.074Z,99435.40
2019-05-28T02:04:27.294Z,99434.59
2019-05-28T02:06:56.473Z,99432.95
2019-05-28T02:09:25.530Z,99441.69
2019-05-28T02:11:54.535Z,99440.58
2019-05-28T02:14:23.667Z,99445.20
2019-05-28T02:16:52.594Z,99448.33
2019-05-28T02:19:21.859Z,99445.55
2019-05-28T02:21:50.889Z,99451.84
2019-05-28T02:24:20.038Z,99448.33
2019-05-28T02:26:49.031Z,99450.00
2019-05-28T02:29:18.057Z,99446.70
2019-05-28T02:31:47.099Z,99448.94
2019-05-28T02:34:16.216Z,99452.02
2019-05-28T02:36:45.493Z,99450.30
2019-05-28T02:39:14.676Z,99446.41
2019-05-28T02:41:43.923Z,99453.61
2019-05-28T02:44:13.107Z,99452.36
2019-05-28T02:46:41.977Z,99455.36
2019-05-28T02:49:11.109Z,99452.95
2019-05-28T02:51:41.151Z,99461.14
2019-05-28T02:54:11.835Z,99482.47
2019-05-28T02:56:41.605Z,99481.70
2019-05-28T02:59:12.542Z,99479.26
2019-05-28T03:01:44.624Z,99487.95
2019-05-28T03:04:13.693Z,99488.64
2019-05-28T03:06:42.876Z,99491.04
2019-05-28T03:09:11.955Z,99491.73
2019-05-28T03:11:40.891Z,99493.44
2019-05-28T03:14:09.962Z,99499.44
2019-05-28T03:16:41.556Z,99497.84
2019-05-28T03:19:11.841Z,99494.92
2019-05-28T03:21:41.813Z,99502.00
2019-05-28T03:24:12.286Z,99492.77
2019-05-28T03:26:41.416Z,99494.52
2019-05-28T03:29:10.662Z,99502.10
2019-05-28T03:31:39.749Z,99509.75
2019-05-28T03:34:08.737Z,99506.98
2019-05-28T03:36:38.660Z,99503.77
2019-05-28T03:39:08.733Z,99507.13
2019-05-28T03:41:38.059Z,99517.98
2019-05-28T03:44:07.307Z,99524.90
2019-05-28T03:46:36.551Z,99523.14
2019-05-28T03:49:05.793Z,99532.92
2019-05-28T03:51:34.691Z,99528.30
2019-05-28T03:54:03.984Z,99535.47
2019-05-28T03:56:32.996Z,99535.36
2019-05-28T03:59:02.405Z,99541.62
2019-05-28T04:01:31.530Z,99543.46
2019-05-28T04:04:01.390Z,99551.55
2019-05-28T04:06:30.466Z,99553.81
2019-05-28T04:08:59.502Z,99551.55
2019-05-28T04:11:43.810Z,99547.00
2019-05-28T04:13:59.282Z,99553.72
2019-05-28T04:16:28.383Z,99555.63
2019-05-28T04:18:57.512Z,99559.44
2019-05-28T04:21:26.747Z,99556.58
2019-05-28T04:23:55.998Z,99565.23
2019-05-28T04:26:25.129Z,99554.82
2019-05-28T04:28:54.275Z,99562.96
2019-05-28T04:31:23.378Z,99561.15
2019-05-28T04:33:52.316Z,99552.95
2019-05-28T04:36:21.370Z,99559.52
2019-05-28T04:38:50.355Z,99557.61
2019-05-28T04:41:20.353Z,99553.95
2019-05-28T04:43:49.453Z,99551.94
2019-05-28T04:46:18.585Z,99550.33
2019-05-28T04:48:48.212Z,99553.92
2019-05-28T04:51:17.343Z,99550.34
2019-05-28T04:53:46.754Z,99546.11
2019-05-28T04:56:15.811Z,99553.88
2019-05-28T04:58:45.078Z,99553.27
2019-05-28T05:01:15.094Z,99552.17
2019-05-28T05:03:44.329Z,99551.55
2019-05-28T05:06:13.405Z,99546.11
2019-05-28T05:08:42.535Z,99558.36
2019-05-28T05:11:11.663Z,99564.31
2019-05-28T05:13:40.628Z,99561.88
2019-05-28T05:16:10.117Z,99561.97
2019-05-28T05:18:39.083Z,99566.05
2019-05-28T05:21:08.158Z,99570.80
2019-05-28T05:23:37.258Z,99571.84
2019-05-28T05:26:06.521Z,99568.54
2019-05-28T05:28:35.491Z,99575.73
2019-05-28T05:31:05.250Z,99567.77
2019-05-28T05:33:34.554Z,99571.81
2019-05-28T05:36:03.468Z,99577.19
2019-05-28T05:38:32.529Z,99569.88
2019-05-28T05:41:01.692Z,99576.08
2019-05-28T05:43:30.831Z,99577.30
2019-05-28T05:46:00.126Z,99583.89
2019-05-28T05:48:29.250Z,99569.57
2019-05-28T05:50:58.586Z,99571.30
2019-05-28T05:53:27.537Z,99573.06
2019-05-28T05:55:57.015Z,99570.94
2019-05-28T05:58:26.139Z,99571.36
2019-05-28T06:00:55.243Z,99577.61
2019-05-28T06:03:39.916Z,99581.28
2019-05-28T06:05:55.370Z,99583.67
2019-05-28T06:08:24.456Z,99580.84
2019-05-28T06:10:53.595Z,99582.87
2019-05-28T06:13:22.737Z,99582.26
2019-05-28T06:15:52.263Z,99581.12
2019-05-28T06:18:22.094Z,99586.52
2019-05-28T06:20:51.235Z,99589.56
2019-05-28T06:23:20.566Z,99579.57
2019-05-28T06:25:49.873Z,99583.62
2019-05-28T06:28:19.221Z,99579.30
2019-05-28T06:30:48.404Z,99577.83
2019-05-28T06:33:17.441Z,99577.34
2019-05-28T06:35:46.688Z,99577.19
2019-05-28T06:38:15.930Z,99583.73
2019-05-28T06:40:45.113Z,99579.41
2019-05-28T06:43:14.279Z,99591.96
2019-05-28T06:45:44.058Z,99583.94
2019-05-28T06:48:13.157Z,99587.31
2019-05-28T06:50:42.142Z,99585.66
2019-05-28T06:53:11.598Z,99588.84
2019-05-28T06:55:40.688Z,99577.16
2019-05-28T06:58:09.920Z,99582.19
2019-05-28T07:00:39.402Z,99578.98
2019-05-28T07:03:08.567Z,99588.53
2019-05-28T07:05:37.547Z,99581.83
2019-05-28T07:08:06.871Z,99582.52
2019-05-28T07:10:36.090Z,99581.00
2019-05-28T07:13:05.038Z,99592.53
2019-05-28T07:15:34.180Z,99587.69
2019-05-28T07:18:03.362Z,99580.62
2019-05-28T07:20:32.400Z,99586.69
2019-05-28T07:23:01.422Z,99591.68
2019-05-28T07:25:31.061Z,99597.89
2019-05-28T07:28:10.387Z,99596.85
2019-05-28T07:30:31.218Z,99597.16
2019-05-28T07:33:00.777Z,99596.66
2019-05-28T07:35:44.773Z,99597.50
2019-05-28T07:38:00.914Z,99591.09
2019-05-28T07:40:32.086Z,99590.37
2019-05-28T07:43:00.885Z,99599.56
2019-05-28T07:45:30.013Z,99596.67
2019-05-28T07:47:59.149Z,99597.82
2019-05-28T07:50:29.414Z,99592.58
2019-05-28T07:52:58.589Z,99599.59
2019-05-28T07:55:27.968Z,99602.60
2019-05-28T07:57:57.367Z,99607.11
2019-05-28T08:00:45.583Z,99612.23
2019-05-28T08:03:14.714Z,99599.47
2019-05-28T08:05:43.958Z,99609.82
2019-05-28T08:08:17.071Z,99608.40
2019-05-28T08:10:46.715Z,99606.08
2019-05-28T08:13:15.948Z,99600.70
2019-05-28T08:15:45.827Z,99609.66
2019-05-28T08:18:15.859Z,99609.00
2019-05-28T08:20:44.892Z,99603.23
2019-05-28T08:23:13.913Z,99611.75
2019-05-28T08:25:47.593Z,99610.40
2019-05-28T08:28:19.807Z,99612.81
2019-05-28T08:30:45.239Z,99609.86
2019-05-28T08:33:15.439Z,99622.70
2019-05-28T08:35:45.897Z,99613.13
2019-05-28T08:38:15.072Z,99612.66
2019-05-28T08:40:44.569Z,99617.36
2019-05-28T08:43:13.778Z,99615.09
2019-05-28T08:45:43.177Z,99607.70
2019-05-28T08:48:12.583Z,99613.73
2019-05-28T08:50:41.910Z,99606.77
2019-05-28T08:53:11.041Z,99611.95
2019-05-28T08:55:40.486Z,99613.61
2019-05-28T08:58:10.690Z,99614.04
2019-05-28T09:00:45.199Z,99613.42
2019-05-28T09:03:15.580Z,99612.61
2019-05-28T09:05:46.445Z,99611.48
2019-05-28T09:08:15.866Z,99612.95
2019-05-28T09:10:45.792Z,99614.89
2019-05-28T09:13:17.376Z,99612.59
2019-05-28T09:15:50.359Z,99613.34
2019-05-28T09:18:21.320Z,99610.97
2019-05-28T09:20:51.102Z,99603.33
2019-05-28T09:23:20.560Z,99605.71
2019-05-28T09:25:51.626Z,99604.50
2019-05-28T09:28:30.173Z,99605.28
2019-05-28T09:30:52.444Z,99607.27
2019-05-28T09:33:23.260Z,99610.80
2019-05-28T09:36:07.368Z,99604.42
2019-05-28T09:38:23.378Z,99601.75
2019-05-28T09:40:52.935Z,99622.91
2019-05-28T09:43:22.431Z,99616.39
2019-05-28T09:45:51.983Z,99610.53
2019-05-28T09:48:21.379Z,99617.09
2019-05-28T09:50:51.916Z,99609.34
2019-05-28T09:53:21.449Z,99607.17
2019-05-28T09:55:50.402Z,99608.30
2019-05-28T09:58:19.707Z,99611.34
2019-05-28T10:00:58.020Z,99611.45
2019-05-28T10:03:21.154Z,99607.73
2019-05-28T10:06:01.981Z,99608.94
2019-05-28T10:08:21.332Z,99608.33
2019-05-28T10:10:50.712Z,99615.00
2019-05-28T10:13:36.904Z,99608.44
2019-05-28T10:15:50.953Z,99601.37
2019-05-28T10:18:20.116Z,99596.46
2019-05-28T10:20:50.963Z,99592.09
2019-05-28T10:23:27.420Z,99611.14
2019-05-28T10:25:57.065Z,99606.77
2019-05-28T10:28:26.491Z,99607.38
2019-05-28T10:30:55.726Z,99608.94
2019-05-28T10:33:25.095Z,99612.39
2019-05-28T10:35:54.595Z,99609.18
2019-05-28T10:38:25.207Z,99602.95
2019-05-28T10:40:54.997Z,99595.67
2019-05-28T10:43:25.813Z,99594.30
2019-05-28T10:45:55.678Z,99595.77
2019-05-28T10:48:25.627Z,99594.52
2019-05-28T10:50:55.484Z,99592.02
2019-05-28T10:53:24.410Z,99590.87
2019-05-28T10:55:53.299Z,99595.27
2019-05-28T10:58:22.133Z,99597.44
2019-05-28T11:00:51.919Z,99596.60
2019-05-28T11:03:20.710Z,99599.01
2019-05-28T11:05:49.558Z,99588.48
2019-05-28T11:08:18.679Z,99587.23
2019-05-28T11:10:47.337Z,99589.83
2019-05-28T11:13:16.507Z,99597.52
2019-05-28T11:15:45.650Z,99589.26
2019-05-28T11:18:15.063Z,99600.66
2019-05-28T11:20:44.315Z,99580.91
2019-05-28T11:23:17.470Z,99580.82
2019-05-28T11:31:20.155Z,99569.67
2019-05-28T11:33:50.212Z,99570.86
2019-05-28T11:36:19.348Z,99572.28
2019-05-28T11:38:48.335Z,99571.73
2019-05-28T11:41:17.111Z,99580.63
2019-05-28T11:43:47.788Z,99571.41
2019-05-28T11:46:16.836Z,99575.00
2019-05-28T11:48:45.597Z,99566.91
2019-05-28T11:51:14.510Z,99571.64
2019-05-28T11:53:43.452Z,99570.07
2019-05-28T11:56:12.327Z,99560.59
2019-05-28T11:58:41.083Z,99565.59
2019-05-28T12:01:10.216Z,99571.23
2019-05-28T12:03:39.439Z,99560.60
2019-05-28T12:06:08.359Z,99561.00
2019-05-28T12:08:37.274Z,99559.28
2019-05-28T12:11:06.035Z,99560.44
2019-05-28T12:13:34.955Z,99561.88
2019-05-28T12:16:03.751Z,99566.41
2019-05-28T12:18:32.546Z,99564.28
2019-05-28T12:21:01.965Z,99550.66
2019-05-28T12:23:30.838Z,99553.88
2019-05-28T12:25:59.810Z,99557.67
2019-05-28T12:28:37.837Z,99543.09
2019-05-28T12:31:00.079Z,99547.80
2019-05-28T12:33:29.206Z,99540.14
2019-05-28T12:35:58.345Z,99545.27
2019-05-28T12:38:28.166Z,99548.33
2019-05-28T12:40:56.991Z,99549.93
2019-05-28T12:43:25.881Z,99549.08
2019-05-28T12:45:54.913Z,99545.90
2019-05-28T12:48:23.841Z,99541.65
2019-05-28T12:50:52.774Z,99544.58
2019-05-28T12:53:21.812Z,99533.05
2019-05-28T12:55:50.570Z,99541.31
2019-05-28T12:58:19.542Z,99539.98
2019-05-28T13:00:48.456Z,99546.41
2019-05-28T13:03:17.898Z,99542.03
2019-05-28T13:05:46.695Z,99535.84
2019-05-28T13:08:15.400Z,99544.98
2019-05-28T13:10:44.667Z,99547.27
2019-05-28T13:13:14.132Z,99555.95
2019-05-28T13:15:43.231Z,99545.39
2019-05-28T13:18:12.414Z,99547.89
2019-05-28T13:20:41.291Z,99549.74
2019-05-28T13:23:10.305Z,99552.58
2019-05-28T13:25:39.502Z,99550.06
2019-05-28T13:28:08.603Z,99549.95
2019-05-28T13:30:37.490Z,99550.48
2019-05-28T13:33:06.475Z,99549.13
2019-05-28T13:35:35.305Z,99539.42
2019-05-28T13:38:04.205Z,99543.42
2019-05-28T13:40:33.064Z,99543.34
2019-05-28T13:43:02.206Z,99552.75
2019-05-28T13:45:31.180Z,99534.44
2019-05-28T13:48:00.024Z,99533.81
2019-05-28T13:50:29.584Z,99535.70
2019-05-28T13:52:58.504Z,99524.93
2019-05-28T13:55:27.277Z,99526.27
2019-05-28T13:57:56.203Z,99525.31
2019-05-28T14:00:27.000Z,99519.18
2019-05-28T14:02:55.806Z,99530.17
2019-05-28T14:05:24.993Z,99524.13
2019-05-28T14:07:53.872Z,99524.95
2019-05-28T14:10:22.662Z,99531.86
2019-05-28T14:12:51.618Z,99525.04
2019-05-28T14:15:21.194Z,99528.37
2019-05-28T14:17:50.133Z,99520.37
2019-05-28T14:20:19.233Z,99521.91
2019-05-28T14:22:47.976Z,99523.59
2019-05-28T14:25:17.559Z,99516.73
2019-05-28T14:27:46.674Z,99525.92
2019-05-28T14:30:16.656Z,99528.95
2019-05-28T14:32:45.770Z,99528.64
2019-05-28T14:35:14.947Z,99527.84
2019-05-28T14:37:43.837Z,99518.98
2019-05-28T14:40:13.747Z,99522.11
2019-05-28T14:42:42.613Z,99521.30
2019-05-28T14:45:11.921Z,99518.88
2019-05-28T14:47:40.792Z,99514.38
2019-05-28T14:50:12.016Z,99519.13
2019-05-28T14:52:41.020Z,99510.61
2019-05-28T14:55:10.556Z,99505.67
2019-05-28T14:57:39.738Z,99510.12
2019-05-28T15:00:10.113Z,99510.70
2019-05-28T15:02:39.086Z,99503.56
2019-05-28T15:05:08.986Z,99502.66
2019-05-28T15:07:37.851Z,99511.31
2019-05-28T15:10:09.982Z,99504.69
2019-05-28T15:12:40.250Z,99511.52
2019-05-28T15:15:11.315Z,99509.20
2019-05-28T15:17:40.223Z,99511.50
2019-05-28T15:20:10.292Z,99520.83
2019-05-28T15:22:39.054Z,99510.41
2019-05-28T15:25:08.224Z,99508.07
2019-05-28T15:27:37.431Z,99518.41
2019-05-28T15:30:07.002Z,99520.28
2019-05-28T15:32:36.243Z,99514.20
2019-05-28T15:35:05.733Z,99519.45
2019-05-28T15:37:35.158Z,99512.41
2019-05-28T15:40:04.265Z,99517.62
2019-05-28T15:42:33.366Z,99523.68
2019-05-28T15:45:02.429Z,99524.02
2019-05-28T15:47:31.455Z,99517.17
2019-05-28T15:50:00.430Z,99525.00
2019-05-28T15:52:29.383Z,99526.48
2019-05-28T15:54:58.295Z,99526.48
2019-05-28T15:57:27.582Z,99530.32
2019-05-28T15:59:56.305Z,99526.80
2019-05-28T16:02:25.393Z,99527.13
2019-05-28T16:04:54.341Z,99528.13
2019-05-28T16:07:23.588Z,99523.78
2019-05-28T16:09:56.762Z,99513.60
2019-05-28T16:12:25.931Z,99529.05
2019-05-28T16:14:55.650Z,99521.81
2019-05-28T16:17:24.690Z,99523.69
2019-05-28T16:19:53.779Z,99526.09
2019-05-28T16:22:22.657Z,99529.30
2019-05-28T16:24:51.676Z,99536.01
2019-05-28T16:27:20.292Z,99538.49
2019-05-28T16:29:49.241Z,99537.08
2019-05-28T16:32:18.422Z,99537.59
2019-05-28T16:34:47.650Z,99539.13
2019-05-28T16:37:17.361Z,99534.41
2019-05-28T16:39:47.534Z,99529.82
2019-05-28T16:42:16.761Z,99528.22
2019-05-28T16:44:45.965Z,99526.11
2019-05-28T16:47:18.378Z,99535.34
2019-05-28T16:49:46.085Z,99533.53
2019-05-28T16:52:15.697Z,99531.11
2019-05-28T16:54:44.792Z,99532.05
2019-05-28T16:57:15.191Z,99532.44
2019-05-28T16:59:44.520Z,99527.19
2019-05-28T17:02:13.595Z,99533.72
2019-05-28T17:04:42.548Z,99533.68
2019-05-28T17:07:11.711Z,99535.06
2019-05-28T17:09:41.187Z,99529.48
2019-05-28T17:12:10.135Z,99542.88
2019-05-28T17:14:39.456Z,99533.65
2019-05-28T17:17:08.611Z,99536.68
2019-05-28T17:19:37.866Z,99539.39
2019-05-28T17:22:07.110Z,99540.41
2019-05-28T17:24:37.436Z,99533.67
2019-05-28T17:27:06.410Z,99531.79
2019-05-28T17:29:35.705Z,99542.51
2019-05-28T17:32:04.955Z,99546.36
2019-05-28T17:34:33.779Z,99550.52
2019-05-28T17:37:04.083Z,99547.44
2019-05-28T17:39:33.472Z,99549.20
2019-05-28T17:42:02.386Z,99546.64
2019-05-28T17:44:31.080Z,99546.56
2019-05-28T17:46:59.965Z,99551.52
2019-05-28T17:49:28.978Z,99546.58
2019-05-28T17:51:58.341Z,99546.36
2019-05-28T17:54:27.729Z,99547.41
2019-05-28T17:56:56.897Z,99550.15
2019-05-28T17:59:26.132Z,99551.09
2019-05-28T18:01:55.169Z,99551.31
2019-05-28T18:04:24.262Z,99552.67
2019-05-28T18:06:53.112Z,99552.89
2019-05-28T18:09:22.735Z,99548.72
2019-05-28T18:11:51.743Z,99553.50
2019-05-28T18:14:23.760Z,99554.58
2019-05-28T18:16:52.209Z,99556.99
2019-05-28T18:19:21.361Z,99566.48
2019-05-28T18:21:50.388Z,99564.86
2019-05-28T18:24:20.949Z,99564.75
2019-05-28T18:26:49.778Z,99560.11
2019-05-28T18:29:18.632Z,99556.28
2019-05-28T18:31:47.750Z,99559.64
2019-05-28T18:34:16.910Z,99561.73
2019-05-28T18:36:46.176Z,99563.59
2019-05-28T18:39:15.187Z,99565.50
2019-05-28T18:41:44.535Z,99567.36
2019-05-28T18:44:13.797Z,99568.09
2019-05-28T18:46:42.865Z,99571.28
2019-05-28T18:49:12.813Z,99569.11
2019-05-28T18:51:42.511Z,99568.17
2019-05-28T18:54:11.623Z,99575.39
2019-05-28T18:56:40.844Z,99572.23
2019-05-28T18:59:09.987Z,99573.45
2019-05-28T19:01:41.506Z,99572.13
2019-05-28T19:04:11.710Z,99575.18
2019-05-28T19:06:40.759Z,99567.48
2019-05-28T19:09:11.379Z,99574.19
2019-05-28T19:11:41.046Z,99576.89
2019-05-28T19:14:10.808Z,99574.37
2019-05-28T19:16:39.995Z,99573.56
2019-05-28T19:19:09.198Z,99570.70
2019-05-28T19:21:38.827Z,99565.83
2019-05-28T19:24:08.249Z,99570.88
2019-05-28T19:26:37.544Z,99574.37
2019-05-28T19:29:06.473Z,99570.88
2019-05-28T19:31:35.640Z,99573.39
2019-05-28T19:34:05.583Z,99572.22
2019-05-28T19:36:34.561Z,99575.08
2019-05-28T19:39:05.677Z,99579.95
2019-05-28T19:41:34.692Z,99586.48
2019-05-28T19:44:03.897Z,99581.48
2019-05-28T19:46:32.536Z,99592.73
2019-05-28T19:49:01.710Z,99582.84
2019-05-28T19:51:31.626Z,99590.75
2019-05-28T19:54:00.383Z,99590.39
2019-05-28T19:56:29.485Z,99589.41
2019-05-28T19:58:58.574Z,99591.58
2019-05-28T20:01:28.000Z,99598.13
2019-05-28T20:03:57.132Z,99597.33
2019-05-28T20:06:26.193Z,99600.02
2019-05-28T20:08:55.268Z,99604.71
2019-05-28T20:11:24.430Z,99605.73
2019-05-28T20:13:53.650Z,99603.38
2019-05-28T20:16:22.836Z,99604.40
2019-05-28T20:18:52.182Z,99607.25
2019-05-28T20:21:21.218Z,99610.42
2019-05-28T20:23:50.281Z,99613.96
2019-05-28T20:26:19.341Z,99614.81
2019-05-28T20:28:49.451Z,99610.80
2019-05-28T20:31:18.653Z,99616.00
2019-05-28T20:33:47.621Z,99612.63
2019-05-28T20:36:16.498Z,99615.32
2019-05-28T20:38:45.707Z,99610.64
2019-05-28T20:41:15.154Z,99613.81
2019-05-28T20:43:44.102Z,99613.66
2019-05-28T20:46:13.083Z,99621.55
2019-05-28T20:48:42.417Z,99623.38
2019-05-28T20:51:20.035Z,99617.52
2019-05-28T20:53:42.419Z,99621.38
2019-05-28T20:56:11.478Z,99619.17
2019-05-28T20:58:40.877Z,99622.70
2019-05-28T21:01:11.561Z,99624.21
2019-05-28T21:03:40.916Z,99621.38
2019-05-28T21:06:10.030Z,99622.03
2019-05-28T21:08:38.962Z,99631.75
2019-05-28T21:11:08.142Z,99629.44
2019-05-28T21:13:37.122Z,99629.61
2019-05-28T21:16:06.344Z,99625.75
2019-05-28T21:18:35.045Z,99626.08
2019-05-28T21:21:04.108Z,99629.91
2019-05-28T21:23:33.093Z,99624.23
2019-05-28T21:26:01.891Z,99631.42
2019-05-28T21:28:30.837Z,99626.39
2019-05-28T21:31:00.888Z,99631.27
2019-05-28T21:33:29.865Z,99638.13
2019-05-28T21:35:59.508Z,99639.64
2019-05-28T21:38:29.103Z,99633.95
2019-05-28T21:40:58.013Z,99641.83
2019-05-28T21:43:27.066Z,99637.31
2019-05-28T21:45:56.246Z,99645.20
2019-05-28T21:48:25.327Z,99636.30
2019-05-28T21:50:54.575Z,99644.19
2019-05-28T21:53:23.873Z,99649.55
2019-05-28T21:55:53.186Z,99649.87
2019-05-28T21:58:22.418Z,99651.89
2019-05-28T22:01:00.359Z,99645.18
2019-05-28T22:03:30.026Z,99645.83
2019-05-28T22:05:59.467Z,99646.99
2019-05-28T22:08:28.615Z,99650.16
2019-05-28T22:10:58.230Z,99649.13
2019-05-28T22:13:27.492Z,99645.44
2019-05-28T22:15:56.470Z,99647.95
2019-05-28T22:18:25.622Z,99642.59
2019-05-28T22:20:56.588Z,99638.40
2019-05-28T22:23:25.984Z,99645.09
2019-05-28T22:25:56.324Z,99645.42
2019-05-28T22:28:25.532Z,99649.75
2019-05-28T22:30:55.579Z,99652.10
2019-05-28T22:33:24.790Z,99650.41
2019-05-28T22:35:54.537Z,99657.25
2019-05-28T22:38:23.589Z,99648.70
2019-05-28T22:40:52.743Z,99657.05
2019-05-28T22:43:31.085Z,99651.66
2019-05-28T22:45:52.573Z,99654.48
2019-05-28T22:48:21.758Z,99656.47
2019-05-28T22:50:50.956Z,99649.25
2019-05-28T22:53:20.106Z,99658.11
2019-05-28T22:55:49.144Z,99657.08
2019-05-28T22:58:18.288Z,99657.72
2019-05-28T23:00:47.199Z,99651.99
2019-05-28T23:03:16.484Z,99651.80
2019-05-28T23:05:46.196Z,99656.09
2019-05-28T23:08:15.392Z,99655.04
2019-05-28T23:10:44.520Z,99659.54
2019-05-28T23:13:14.065Z,99657.33
2019-05-28T23:15:43.061Z,99665.84
2019-05-28T23:18:12.221Z,99654.30
2019-05-28T23:20:41.636Z,99659.61
2019-05-28T23:23:11.459Z,99662.92
2019-05-28T23:25:40.389Z,99664.38
2019-05-28T23:28:09.870Z,99664.20
2019-05-28T23:30:38.955Z,99665.20
2019-05-28T23:33:10.466Z,99660.03
2019-05-28T23:35:38.811Z,99665.54
2019-05-28T23:38:09.028Z,99669.89
2019-05-28T23:40:38.520Z,99672.70
2019-05-28T23:43:07.787Z,99678.20
2019-05-28T23:45:36.954Z,99664.80
2019-05-28T23:48:11.022Z,99667.30
2019-05-28T23:50:38.419Z,99671.80
2019-05-28T23:53:07.747Z,99670.20
2019-05-28T23:55:36.769Z,99678.34
2019-05-28T23:58:06.092Z,99669.80
